sensor_id;sensor_type;location;lat;lon;timestamp;pressure;altitude;pressure_sealevel;temperature;humidity
17383;BME280;8809;51.892;8.384;2023-10-31T00:02:20;98469.94;;;20.72;71.19
17383;BME280;8809;51.892;8.384;2023-10-31T00:04:47;98468.19;;;20.71;71.28
17383;BME280;8809;51.892;8.384;2023-10-31T00:07:15;98470.38;;;20.85;70.84
17383;BME280;8809;51.892;8.384;2023-10-31T00:09:45;98473.78;;;20.62;71.74
17383;BME280;8809;51.892;8.384;2023-10-31T00:12:12;98471.00;;;20.93;70.80
17383;BME280;8809;51.892;8.384;2023-10-31T00:14:41;98464.78;;;20.94;70.49
17383;BME280;8809;51.892;8.384;2023-10-31T00:17:08;98457.44;;;20.76;71.16
17383;BME280;8809;51.892;8.384;2023-10-31T00:19:36;98460.44;;;20.92;70.82
17383;BME280;8809;51.892;8.384;2023-10-31T00:22:03;98452.94;;;20.78;71.25
17383;BME280;8809;51.892;8.384;2023-10-31T00:24:30;98458.50;;;20.70;71.36
17383;BME280;8809;51.892;8.384;2023-10-31T00:26:59;98447.38;;;20.59;72.04
17383;BME280;8809;51.892;8.384;2023-10-31T00:29:26;98447.63;;;20.78;71.53
17383;BME280;8809;51.892;8.384;2023-10-31T00:31:53;98447.91;;;20.70;72.13
17383;BME280;8809;51.892;8.384;2023-10-31T00:34:20;98445.22;;;20.72;71.80
17383;BME280;8809;51.892;8.384;2023-10-31T00:36:50;98448.69;;;20.74;71.76
17383;BME280;8809;51.892;8.384;2023-10-31T00:39:17;98444.91;;;20.81;71.55
17383;BME280;8809;51.892;8.384;2023-10-31T00:41:45;98447.31;;;20.87;71.23
17383;BME280;8809;51.892;8.384;2023-10-31T00:44:14;98451.19;;;20.77;71.77
17383;BME280;8809;51.892;8.384;2023-10-31T00:46:42;98451.28;;;20.76;71.52
17383;BME280;8809;51.892;8.384;2023-10-31T00:49:09;98445.72;;;20.83;71.29
17383;BME280;8809;51.892;8.384;2023-10-31T00:51:37;98454.03;;;20.72;72.26
17383;BME280;8809;51.892;8.384;2023-10-31T00:54:04;98448.38;;;20.57;72.88
17383;BME280;8809;51.892;8.384;2023-10-31T00:56:31;98446.34;;;20.65;72.77
17383;BME280;8809;51.892;8.384;2023-10-31T00:58:58;98437.22;;;20.73;72.18
17383;BME280;8809;51.892;8.384;2023-10-31T01:01:27;98438.34;;;20.91;71.36
17383;BME280;8809;51.892;8.384;2023-10-31T01:03:56;98438.69;;;20.82;71.66
17383;BME280;8809;51.892;8.384;2023-10-31T01:06:23;98444.03;;;20.81;71.63
17383;BME280;8809;51.892;8.384;2023-10-31T01:08:50;98440.81;;;20.71;72.16
17383;BME280;8809;51.892;8.384;2023-10-31T01:11:17;98439.13;;;20.68;72.50
17383;BME280;8809;51.892;8.384;2023-10-31T01:13:44;98442.34;;;20.78;72.33
17383;BME280;8809;51.892;8.384;2023-10-31T01:16:14;98441.31;;;20.82;72.13
17383;BME280;8809;51.892;8.384;2023-10-31T01:18:47;98441.00;;;20.91;71.73
17383;BME280;8809;51.892;8.384;2023-10-31T01:21:14;98446.47;;;20.87;71.72
17383;BME280;8809;51.892;8.384;2023-10-31T01:23:41;98449.38;;;20.53;73.37
17383;BME280;8809;51.892;8.384;2023-10-31T01:26:08;98442.53;;;20.47;73.84
17383;BME280;8809;51.892;8.384;2023-10-31T01:28:35;98441.47;;;20.51;73.92
17383;BME280;8809;51.892;8.384;2023-10-31T01:31:03;98454.97;;;20.44;73.66
17383;BME280;8809;51.892;8.384;2023-10-31T01:33:30;98454.94;;;20.17;73.93
17383;BME280;8809;51.892;8.384;2023-10-31T01:35:58;98461.50;;;20.04;73.73
17383;BME280;8809;51.892;8.384;2023-10-31T01:38:25;98459.06;;;19.98;73.51
17383;BME280;8809;51.892;8.384;2023-10-31T01:40:52;98462.13;;;20.12;72.56
17383;BME280;8809;51.892;8.384;2023-10-31T01:43:30;98469.91;;;19.89;72.78
17383;BME280;8809;51.892;8.384;2023-10-31T01:45:57;98471.19;;;20.34;70.34
17383;BME280;8809;51.892;8.384;2023-10-31T01:48:26;98481.41;;;20.17;70.16
17383;BME280;8809;51.892;8.384;2023-10-31T01:50:54;98490.88;;;19.66;71.78
17383;BME280;8809;51.892;8.384;2023-10-31T01:53:24;98493.03;;;19.51;71.25
17383;BME280;8809;51.892;8.384;2023-10-31T01:55:52;98488.94;;;20.01;69.73
17383;BME280;8809;51.892;8.384;2023-10-31T01:58:28;98503.16;;;19.36;69.51
17383;BME280;8809;51.892;8.384;2023-10-31T02:00:59;98489.81;;;19.40;69.88
17383;BME280;8809;51.892;8.384;2023-10-31T02:03:27;98486.28;;;19.41;69.24
17383;BME280;8809;51.892;8.384;2023-10-31T02:05:55;98494.69;;;19.23;69.18
17383;BME280;8809;51.892;8.384;2023-10-31T02:08:26;98478.56;;;19.32;68.95
17383;BME280;8809;51.892;8.384;2023-10-31T02:10:53;98507.78;;;19.27;68.80
17383;BME280;8809;51.892;8.384;2023-10-31T02:13:20;98492.63;;;19.34;68.34
17383;BME280;8809;51.892;8.384;2023-10-31T02:15:49;98501.88;;;19.18;68.20
17383;BME280;8809;51.892;8.384;2023-10-31T02:18:16;98488.25;;;19.01;66.65
17383;BME280;8809;51.892;8.384;2023-10-31T02:20:44;98502.44;;;18.97;68.00
17383;BME280;8809;51.892;8.384;2023-10-31T02:23:15;98508.41;;;19.03;66.43
17383;BME280;8809;51.892;8.384;2023-10-31T02:25:42;98513.06;;;18.94;66.44
17383;BME280;8809;51.892;8.384;2023-10-31T02:28:09;98526.31;;;19.26;65.96
17383;BME280;8809;51.892;8.384;2023-10-31T02:30:36;98520.44;;;19.15;66.06
17383;BME280;8809;51.892;8.384;2023-10-31T02:33:03;98515.44;;;19.04;65.16
17383;BME280;8809;51.892;8.384;2023-10-31T02:35:30;98501.72;;;18.90;66.60
17383;BME280;8809;51.892;8.384;2023-10-31T02:37:58;98518.31;;;19.29;64.39
17383;BME280;8809;51.892;8.384;2023-10-31T02:40:27;98515.78;;;18.92;66.14
17383;BME280;8809;51.892;8.384;2023-10-31T02:42:54;98510.88;;;18.75;66.82
17383;BME280;8809;51.892;8.384;2023-10-31T02:45:21;98523.34;;;18.70;67.39
17383;BME280;8809;51.892;8.384;2023-10-31T02:47:48;98523.41;;;18.67;66.60
17383;BME280;8809;51.892;8.384;2023-10-31T02:50:15;98516.63;;;18.55;66.44
17383;BME280;8809;51.892;8.384;2023-10-31T02:52:42;98527.19;;;18.55;67.07
17383;BME280;8809;51.892;8.384;2023-10-31T02:55:09;98534.44;;;18.47;66.70
17383;BME280;8809;51.892;8.384;2023-10-31T02:57:38;98537.84;;;18.52;65.98
17383;BME280;8809;51.892;8.384;2023-10-31T03:00:07;98548.91;;;18.30;66.67
17383;BME280;8809;51.892;8.384;2023-10-31T03:02:34;98545.59;;;18.62;66.29
17383;BME280;8809;51.892;8.384;2023-10-31T03:05:01;98558.22;;;18.46;65.82
17383;BME280;8809;51.892;8.384;2023-10-31T03:07:28;98556.22;;;18.17;67.30
17383;BME280;8809;51.892;8.384;2023-10-31T03:09:56;98551.63;;;18.27;67.28
17383;BME280;8809;51.892;8.384;2023-10-31T03:12:27;98559.03;;;18.09;67.46
17383;BME280;8809;51.892;8.384;2023-10-31T03:14:56;98556.91;;;18.67;65.16
17383;BME280;8809;51.892;8.384;2023-10-31T03:17:23;98569.06;;;18.74;64.45
17383;BME280;8809;51.892;8.384;2023-10-31T03:19:51;98564.72;;;18.71;64.92
17383;BME280;8809;51.892;8.384;2023-10-31T03:22:18;98576.91;;;18.37;65.00
17383;BME280;8809;51.892;8.384;2023-10-31T03:24:45;98567.56;;;18.64;65.52
17383;BME280;8809;51.892;8.384;2023-10-31T03:27:12;98578.91;;;18.67;64.74
17383;BME280;8809;51.892;8.384;2023-10-31T03:29:39;98581.84;;;18.53;64.76
17383;BME280;8809;51.892;8.384;2023-10-31T03:32:10;98578.22;;;18.59;64.80
17383;BME280;8809;51.892;8.384;2023-10-31T03:34:37;98596.94;;;18.47;65.24
17383;BME280;8809;51.892;8.384;2023-10-31T03:37:05;98585.41;;;18.51;64.41
17383;BME280;8809;51.892;8.384;2023-10-31T03:39:32;98596.13;;;18.45;64.73
17383;BME280;8809;51.892;8.384;2023-10-31T03:41:59;98607.38;;;18.53;63.99
17383;BME280;8809;51.892;8.384;2023-10-31T03:44:27;98604.84;;;18.47;64.07
17383;BME280;8809;51.892;8.384;2023-10-31T03:46:54;98607.06;;;18.67;63.77
17383;BME280;8809;51.892;8.384;2023-10-31T03:49:22;98604.25;;;18.74;64.02
17383;BME280;8809;51.892;8.384;2023-10-31T03:51:48;98625.22;;;18.42;63.38
17383;BME280;8809;51.892;8.384;2023-10-31T03:54:15;98624.13;;;18.10;64.73
17383;BME280;8809;51.892;8.384;2023-10-31T03:56:42;98614.88;;;18.31;63.42
17383;BME280;8809;51.892;8.384;2023-10-31T03:59:10;98618.13;;;18.44;63.35
17383;BME280;8809;51.892;8.384;2023-10-31T04:01:37;98633.84;;;18.50;63.88
17383;BME280;8809;51.892;8.384;2023-10-31T04:04:05;98635.06;;;18.34;64.00
17383;BME280;8809;51.892;8.384;2023-10-31T04:06:34;98654.00;;;18.54;62.80
17383;BME280;8809;51.892;8.384;2023-10-31T04:09:01;98641.03;;;18.43;63.23
17383;BME280;8809;51.892;8.384;2023-10-31T04:11:28;98641.16;;;18.36;63.33
17383;BME280;8809;51.892;8.384;2023-10-31T04:13:55;98635.09;;;18.32;63.66
17383;BME280;8809;51.892;8.384;2023-10-31T04:16:22;98648.75;;;18.09;64.41
17383;BME280;8809;51.892;8.384;2023-10-31T04:18:49;98645.28;;;18.07;65.48
17383;BME280;8809;51.892;8.384;2023-10-31T04:21:16;98655.75;;;18.12;64.97
17383;BME280;8809;51.892;8.384;2023-10-31T04:23:44;98650.44;;;18.13;64.88
17383;BME280;8809;51.892;8.384;2023-10-31T04:26:11;98660.97;;;18.15;65.10
17383;BME280;8809;51.892;8.384;2023-10-31T04:28:39;98664.78;;;18.43;63.91
17383;BME280;8809;51.892;8.384;2023-10-31T04:31:06;98677.19;;;18.40;63.97
17383;BME280;8809;51.892;8.384;2023-10-31T04:33:33;98663.16;;;18.36;64.00
17383;BME280;8809;51.892;8.384;2023-10-31T04:36:00;98659.41;;;18.06;65.58
17383;BME280;8809;51.892;8.384;2023-10-31T04:38:31;98666.81;;;18.31;64.43
17383;BME280;8809;51.892;8.384;2023-10-31T04:40:59;98674.66;;;17.89;65.94
17383;BME280;8809;51.892;8.384;2023-10-31T04:43:29;98674.91;;;17.77;66.63
17383;BME280;8809;51.892;8.384;2023-10-31T04:45:56;98680.91;;;17.85;66.32
17383;BME280;8809;51.892;8.384;2023-10-31T04:48:23;98688.78;;;17.87;66.91
17383;BME280;8809;51.892;8.384;2023-10-31T04:50:50;98692.94;;;18.00;66.08
17383;BME280;8809;51.892;8.384;2023-10-31T04:53:17;98685.13;;;17.94;66.33
17383;BME280;8809;51.892;8.384;2023-10-31T04:55:44;98697.16;;;18.08;66.30
17383;BME280;8809;51.892;8.384;2023-10-31T04:58:15;98705.94;;;18.10;65.95
17383;BME280;8809;51.892;8.384;2023-10-31T05:00:42;98708.13;;;17.87;66.30
17383;BME280;8809;51.892;8.384;2023-10-31T05:03:09;98711.53;;;17.92;66.82
17383;BME280;8809;51.892;8.384;2023-10-31T05:05:37;98714.72;;;18.11;66.45
17383;BME280;8809;51.892;8.384;2023-10-31T05:08:04;98709.94;;;18.30;66.08
17383;BME280;8809;51.892;8.384;2023-10-31T05:10:31;98716.31;;;18.20;66.46
17383;BME280;8809;51.892;8.384;2023-10-31T05:13:00;98714.53;;;18.20;66.69
17383;BME280;8809;51.892;8.384;2023-10-31T05:15:29;98715.84;;;18.44;65.53
17383;BME280;8809;51.892;8.384;2023-10-31T05:17:56;98724.13;;;18.26;65.43
17383;BME280;8809;51.892;8.384;2023-10-31T05:20:23;98715.91;;;18.39;65.48
17383;BME280;8809;51.892;8.384;2023-10-31T05:22:50;98731.59;;;18.47;65.60
17383;BME280;8809;51.892;8.384;2023-10-31T05:25:17;98727.13;;;18.50;65.07
17383;BME280;8809;51.892;8.384;2023-10-31T05:27:44;98731.53;;;18.51;65.30
17383;BME280;8809;51.892;8.384;2023-10-31T05:30:13;98723.69;;;18.47;65.85
17383;BME280;8809;51.892;8.384;2023-10-31T05:32:42;98731.75;;;18.39;66.08
17383;BME280;8809;51.892;8.384;2023-10-31T05:35:10;98733.72;;;18.30;66.14
17383;BME280;8809;51.892;8.384;2023-10-31T05:37:39;98738.56;;;18.51;65.59
17383;BME280;8809;51.892;8.384;2023-10-31T05:40:07;98733.47;;;18.42;65.68
17383;BME280;8809;51.892;8.384;2023-10-31T05:42:34;98739.59;;;18.44;65.99
17383;BME280;8809;51.892;8.384;2023-10-31T05:45:02;98746.72;;;18.39;66.21
17383;BME280;8809;51.892;8.384;2023-10-31T05:47:29;98746.63;;;18.45;66.34
17383;BME280;8809;51.892;8.384;2023-10-31T05:49:58;98743.88;;;18.49;65.70
17383;BME280;8809;51.892;8.384;2023-10-31T05:52:27;98750.03;;;18.50;65.82
17383;BME280;8809;51.892;8.384;2023-10-31T05:54:54;98751.97;;;18.42;66.47
17383;BME280;8809;51.892;8.384;2023-10-31T05:57:22;98750.03;;;18.50;66.13
17383;BME280;8809;51.892;8.384;2023-10-31T05:59:49;98746.44;;;18.54;65.60
17383;BME280;8809;51.892;8.384;2023-10-31T06:02:16;98752.53;;;18.58;65.77
17383;BME280;8809;51.892;8.384;2023-10-31T06:04:43;98753.69;;;18.43;66.36
17383;BME280;8809;51.892;8.384;2023-10-31T06:07:12;98771.13;;;18.51;66.50
17383;BME280;8809;51.892;8.384;2023-10-31T06:09:39;98767.56;;;18.54;66.58
17383;BME280;8809;51.892;8.384;2023-10-31T06:12:09;98773.06;;;18.42;66.67
17383;BME280;8809;51.892;8.384;2023-10-31T06:14:37;98767.81;;;18.40;66.68
17383;BME280;8809;51.892;8.384;2023-10-31T06:17:05;98769.78;;;18.29;67.20
17383;BME280;8809;51.892;8.384;2023-10-31T06:19:34;98781.91;;;18.41;67.05
17383;BME280;8809;51.892;8.384;2023-10-31T06:22:01;98777.31;;;18.50;66.96
17383;BME280;8809;51.892;8.384;2023-10-31T06:24:30;98778.47;;;18.36;66.54
17383;BME280;8809;51.892;8.384;2023-10-31T06:26:57;98777.50;;;18.40;66.58
17383;BME280;8809;51.892;8.384;2023-10-31T06:29:24;98785.25;;;18.49;66.67
17383;BME280;8809;51.892;8.384;2023-10-31T06:31:51;98789.53;;;18.58;66.83
17383;BME280;8809;51.892;8.384;2023-10-31T06:34:18;98793.91;;;18.55;67.30
17383;BME280;8809;51.892;8.384;2023-10-31T06:36:46;98791.22;;;18.12;68.30
17383;BME280;8809;51.892;8.384;2023-10-31T06:39:13;98788.28;;;18.28;68.50
17383;BME280;8809;51.892;8.384;2023-10-31T06:41:41;98786.09;;;18.03;69.56
17383;BME280;8809;51.892;8.384;2023-10-31T06:44:10;98788.25;;;18.31;68.55
17383;BME280;8809;51.892;8.384;2023-10-31T06:46:37;98794.28;;;18.36;68.19
17383;BME280;8809;51.892;8.384;2023-10-31T06:49:05;98793.88;;;18.11;69.56
17383;BME280;8809;51.892;8.384;2023-10-31T06:51:32;98800.84;;;18.16;69.11
17383;BME280;8809;51.892;8.384;2023-10-31T06:53:59;98800.06;;;18.10;69.35
17383;BME280;8809;51.892;8.384;2023-10-31T06:56:26;98800.50;;;17.84;69.92
17383;BME280;8809;51.892;8.384;2023-10-31T06:58:55;98802.69;;;18.11;69.35
17383;BME280;8809;51.892;8.384;2023-10-31T07:01:25;98811.44;;;18.13;68.93
17383;BME280;8809;51.892;8.384;2023-10-31T07:03:52;98802.84;;;18.02;68.39
17383;BME280;8809;51.892;8.384;2023-10-31T07:06:19;98798.88;;;18.26;67.96
17383;BME280;8809;51.892;8.384;2023-10-31T07:08:47;98808.06;;;18.05;68.67
17383;BME280;8809;51.892;8.384;2023-10-31T07:11:14;98809.66;;;18.15;68.42
17383;BME280;8809;51.892;8.384;2023-10-31T07:13:41;98819.25;;;18.18;68.99
17383;BME280;8809;51.892;8.384;2023-10-31T07:16:09;98824.63;;;18.13;68.81
17383;BME280;8809;51.892;8.384;2023-10-31T07:18:37;98827.25;;;18.16;68.82
17383;BME280;8809;51.892;8.384;2023-10-31T07:21:05;98845.22;;;17.92;70.23
17383;BME280;8809;51.892;8.384;2023-10-31T07:23:32;98853.56;;;18.18;68.98
17383;BME280;8809;51.892;8.384;2023-10-31T07:26:03;98857.75;;;18.33;69.35
17383;BME280;8809;51.892;8.384;2023-10-31T07:28:30;98866.34;;;18.44;68.72
17383;BME280;8809;51.892;8.384;2023-10-31T07:30:57;98862.22;;;18.26;69.44
17383;BME280;8809;51.892;8.384;2023-10-31T07:33:25;98871.84;;;18.32;69.34
17383;BME280;8809;51.892;8.384;2023-10-31T07:35:52;98878.16;;;18.23;70.19
17383;BME280;8809;51.892;8.384;2023-10-31T07:38:22;98869.53;;;18.10;69.77
17383;BME280;8809;51.892;8.384;2023-10-31T07:40:52;98879.09;;;18.17;68.40
17383;BME280;8809;51.892;8.384;2023-10-31T07:43:19;98874.84;;;18.09;69.08
17383;BME280;8809;51.892;8.384;2023-10-31T07:45:48;98882.84;;;18.06;68.68
17383;BME280;8809;51.892;8.384;2023-10-31T07:48:15;98873.94;;;18.11;68.31
17383;BME280;8809;51.892;8.384;2023-10-31T07:50:43;98884.28;;;18.24;68.36
17383;BME280;8809;51.892;8.384;2023-10-31T07:53:14;98882.00;;;18.02;69.38
17383;BME280;8809;51.892;8.384;2023-10-31T07:55:41;98889.09;;;17.99;69.18
17383;BME280;8809;51.892;8.384;2023-10-31T07:58:08;98883.81;;;17.99;69.42
17383;BME280;8809;51.892;8.384;2023-10-31T08:00:37;98897.81;;;18.04;69.40
17383;BME280;8809;51.892;8.384;2023-10-31T08:03:05;98895.34;;;17.93;70.48
17383;BME280;8809;51.892;8.384;2023-10-31T08:05:32;98901.25;;;18.09;69.59
17383;BME280;8809;51.892;8.384;2023-10-31T08:08:01;98895.00;;;18.14;69.38
17383;BME280;8809;51.892;8.384;2023-10-31T08:10:28;98902.94;;;18.14;68.83
17383;BME280;8809;51.892;8.384;2023-10-31T08:12:56;98907.47;;;18.06;69.70
17383;BME280;8809;51.892;8.384;2023-10-31T08:15:23;98905.84;;;17.96;69.97
17383;BME280;8809;51.892;8.384;2023-10-31T08:17:50;98921.47;;;18.10;69.52
17383;BME280;8809;51.892;8.384;2023-10-31T08:20:17;98916.03;;;18.19;69.52
17383;BME280;8809;51.892;8.384;2023-10-31T08:22:45;98921.00;;;18.39;69.04
17383;BME280;8809;51.892;8.384;2023-10-31T08:25:14;98933.00;;;18.58;67.44
17383;BME280;8809;51.892;8.384;2023-10-31T08:27:41;98928.44;;;18.15;68.69
17383;BME280;8809;51.892;8.384;2023-10-31T08:30:09;98927.41;;;18.24;68.10
17383;BME280;8809;51.892;8.384;2023-10-31T08:32:37;98938.03;;;18.18;68.78
17383;BME280;8809;51.892;8.384;2023-10-31T08:35:04;98937.91;;;18.27;68.04
17383;BME280;8809;51.892;8.384;2023-10-31T08:37:31;98944.69;;;18.43;67.20
17383;BME280;8809;51.892;8.384;2023-10-31T08:39:58;98950.56;;;18.62;65.82
17383;BME280;8809;51.892;8.384;2023-10-31T08:42:31;98958.94;;;18.33;66.23
17383;BME280;8809;51.892;8.384;2023-10-31T08:44:58;98958.25;;;18.21;67.24
17383;BME280;8809;51.892;8.384;2023-10-31T08:47:25;98971.25;;;18.34;66.84
17383;BME280;8809;51.892;8.384;2023-10-31T08:49:55;98971.25;;;18.34;67.46
17383;BME280;8809;51.892;8.384;2023-10-31T08:52:22;98972.13;;;18.33;67.02
17383;BME280;8809;51.892;8.384;2023-10-31T08:54:49;98975.00;;;18.18;66.76
17383;BME280;8809;51.892;8.384;2023-10-31T08:57:16;98972.31;;;18.23;67.31
17383;BME280;8809;51.892;8.384;2023-10-31T08:59:44;98975.88;;;18.18;67.81
17383;BME280;8809;51.892;8.384;2023-10-31T09:02:11;98979.25;;;18.27;66.80
17383;BME280;8809;51.892;8.384;2023-10-31T09:04:38;98989.06;;;18.18;66.98
17383;BME280;8809;51.892;8.384;2023-10-31T09:07:06;98990.75;;;18.26;66.70
17383;BME280;8809;51.892;8.384;2023-10-31T09:09:33;98984.31;;;18.42;66.03
17383;BME280;8809;51.892;8.384;2023-10-31T09:12:00;98996.69;;;18.37;67.20
17383;BME280;8809;51.892;8.384;2023-10-31T09:14:27;98994.91;;;18.39;66.14
17383;BME280;8809;51.892;8.384;2023-10-31T09:16:56;98995.66;;;18.48;66.22
17383;BME280;8809;51.892;8.384;2023-10-31T09:19:23;98999.97;;;18.54;65.88
17383;BME280;8809;51.892;8.384;2023-10-31T09:21:50;99007.53;;;18.77;65.60
17383;BME280;8809;51.892;8.384;2023-10-31T09:24:17;99009.41;;;18.72;64.96
17383;BME280;8809;51.892;8.384;2023-10-31T09:26:44;99014.69;;;18.70;65.25
17383;BME280;8809;51.892;8.384;2023-10-31T09:29:11;99032.03;;;18.86;64.09
17383;BME280;8809;51.892;8.384;2023-10-31T09:31:38;99023.31;;;18.83;63.81
17383;BME280;8809;51.892;8.384;2023-10-31T09:34:07;99024.50;;;18.64;64.15
17383;BME280;8809;51.892;8.384;2023-10-31T09:36:35;99027.00;;;18.71;64.05
17383;BME280;8809;51.892;8.384;2023-10-31T09:39:02;99024.94;;;18.90;63.66
17383;BME280;8809;51.892;8.384;2023-10-31T09:41:30;99027.78;;;18.76;64.32
17383;BME280;8809;51.892;8.384;2023-10-31T09:43:58;99023.16;;;18.92;64.27
17383;BME280;8809;51.892;8.384;2023-10-31T09:46:25;99041.00;;;18.78;63.39
17383;BME280;8809;51.892;8.384;2023-10-31T09:48:54;99043.56;;;18.82;64.37
17383;BME280;8809;51.892;8.384;2023-10-31T09:51:23;99054.28;;;18.73;64.04
17383;BME280;8809;51.892;8.384;2023-10-31T09:53:51;99056.00;;;18.74;63.92
17383;BME280;8809;51.892;8.384;2023-10-31T09:56:21;99069.91;;;18.85;63.47
17383;BME280;8809;51.892;8.384;2023-10-31T09:58:51;99069.78;;;18.95;63.46
17383;BME280;8809;51.892;8.384;2023-10-31T10:01:18;99068.94;;;18.93;62.45
17383;BME280;8809;51.892;8.384;2023-10-31T10:03:46;99079.56;;;18.89;62.55
17383;BME280;8809;51.892;8.384;2023-10-31T10:06:13;99082.19;;;18.91;62.30
17383;BME280;8809;51.892;8.384;2023-10-31T10:08:42;99091.69;;;19.01;61.96
17383;BME280;8809;51.892;8.384;2023-10-31T10:11:11;99105.69;;;19.08;61.75
17383;BME280;8809;51.892;8.384;2023-10-31T10:13:38;99098.91;;;18.92;62.29
17383;BME280;8809;51.892;8.384;2023-10-31T10:16:07;99105.97;;;18.89;62.85
17383;BME280;8809;51.892;8.384;2023-10-31T10:18:35;99114.47;;;18.50;64.03
17383;BME280;8809;51.892;8.384;2023-10-31T10:21:05;99113.78;;;18.36;65.21
17383;BME280;8809;51.892;8.384;2023-10-31T10:23:33;99112.69;;;18.50;64.37
17383;BME280;8809;51.892;8.384;2023-10-31T10:26:02;99121.38;;;18.63;65.13
17383;BME280;8809;51.892;8.384;2023-10-31T10:28:29;99121.31;;;18.66;66.17
17383;BME280;8809;51.892;8.384;2023-10-31T10:30:58;99134.47;;;18.69;66.29
17383;BME280;8809;51.892;8.384;2023-10-31T10:33:26;99130.28;;;18.53;67.05
17383;BME280;8809;51.892;8.384;2023-10-31T10:35:54;99126.81;;;18.48;68.13
17383;BME280;8809;51.892;8.384;2023-10-31T10:38:22;99129.66;;;18.34;69.14
17383;BME280;8809;51.892;8.384;2023-10-31T10:40:49;99139.38;;;18.31;69.54
17383;BME280;8809;51.892;8.384;2023-10-31T10:43:21;99137.34;;;18.52;68.54
17383;BME280;8809;51.892;8.384;2023-10-31T10:45:53;99134.56;;;18.63;68.56
17383;BME280;8809;51.892;8.384;2023-10-31T10:48:23;99141.66;;;18.57;68.78
17383;BME280;8809;51.892;8.384;2023-10-31T10:50:57;99145.06;;;18.66;68.55
17383;BME280;8809;51.892;8.384;2023-10-31T10:53:30;99142.09;;;18.89;67.65
17383;BME280;8809;51.892;8.384;2023-10-31T10:56:07;99141.34;;;18.82;68.00
17383;BME280;8809;51.892;8.384;2023-10-31T10:58:51;99147.53;;;18.80;68.44
17383;BME280;8809;51.892;8.384;2023-10-31T11:01:20;99145.81;;;18.76;68.29
17383;BME280;8809;51.892;8.384;2023-10-31T11:03:48;99152.13;;;18.66;68.59
17383;BME280;8809;51.892;8.384;2023-10-31T11:06:18;99152.91;;;18.74;68.76
17383;BME280;8809;51.892;8.384;2023-10-31T11:08:46;99156.47;;;18.71;69.53
17383;BME280;8809;51.892;8.384;2023-10-31T11:11:14;99161.88;;;18.62;69.44
17383;BME280;8809;51.892;8.384;2023-10-31T11:13:44;99160.91;;;18.68;70.40
17383;BME280;8809;51.892;8.384;2023-10-31T11:16:17;99159.91;;;18.76;69.67
17383;BME280;8809;51.892;8.384;2023-10-31T11:18:45;99174.09;;;18.69;70.42
17383;BME280;8809;51.892;8.384;2023-10-31T11:21:13;99174.72;;;18.88;69.32
17383;BME280;8809;51.892;8.384;2023-10-31T11:23:41;99172.53;;;18.53;70.78
17383;BME280;8809;51.892;8.384;2023-10-31T11:26:10;99169.00;;;18.54;71.22
17383;BME280;8809;51.892;8.384;2023-10-31T11:28:37;99174.25;;;18.57;71.54
17383;BME280;8809;51.892;8.384;2023-10-31T11:31:08;99176.84;;;18.63;71.06
17383;BME280;8809;51.892;8.384;2023-10-31T11:33:38;99172.19;;;18.80;70.54
17383;BME280;8809;51.892;8.384;2023-10-31T11:36:07;99177.44;;;18.83;70.24
17383;BME280;8809;51.892;8.384;2023-10-31T11:38:36;99175.59;;;18.88;70.02
17383;BME280;8809;51.892;8.384;2023-10-31T11:41:05;99185.50;;;18.73;71.05
17383;BME280;8809;51.892;8.384;2023-10-31T11:43:52;99190.56;;;18.89;69.62
17383;BME280;8809;51.892;8.384;2023-10-31T11:46:22;99190.59;;;18.86;70.34
17383;BME280;8809;51.892;8.384;2023-10-31T11:48:51;99182.59;;;18.91;69.41
17383;BME280;8809;51.892;8.384;2023-10-31T11:51:19;99193.94;;;18.99;68.97
17383;BME280;8809;51.892;8.384;2023-10-31T11:53:47;99186.94;;;18.95;69.03
17383;BME280;8809;51.892;8.384;2023-10-31T11:56:16;99188.47;;;19.11;67.66
17383;BME280;8809;51.892;8.384;2023-10-31T11:58:43;99191.19;;;19.04;67.88
17383;BME280;8809;51.892;8.384;2023-10-31T12:01:11;99195.84;;;18.89;68.22
17383;BME280;8809;51.892;8.384;2023-10-31T12:03:41;99198.59;;;18.80;68.94
17383;BME280;8809;51.892;8.384;2023-10-31T12:06:09;99198.59;;;18.80;68.67
17383;BME280;8809;51.892;8.384;2023-10-31T12:08:38;99206.38;;;18.93;68.86
17383;BME280;8809;51.892;8.384;2023-10-31T12:11:09;99205.50;;;18.90;68.74
17383;BME280;8809;51.892;8.384;2023-10-31T12:13:38;99203.00;;;18.81;68.06
17383;BME280;8809;51.892;8.384;2023-10-31T12:16:06;99198.34;;;18.97;68.64
17383;BME280;8809;51.892;8.384;2023-10-31T12:18:34;99196.63;;;18.95;68.79
17383;BME280;8809;51.892;8.384;2023-10-31T12:21:03;99198.38;;;18.96;68.61
17383;BME280;8809;51.892;8.384;2023-10-31T12:23:33;99198.31;;;19.02;68.31
17383;BME280;8809;51.892;8.384;2023-10-31T12:26:00;99193.28;;;18.83;69.17
17383;BME280;8809;51.892;8.384;2023-10-31T12:28:27;99201.09;;;18.91;69.17
17383;BME280;8809;51.892;8.384;2023-10-31T12:30:55;99201.22;;;18.83;69.46
17383;BME280;8809;51.892;8.384;2023-10-31T12:33:26;99203.78;;;18.86;69.29
17383;BME280;8809;51.892;8.384;2023-10-31T12:35:58;99203.00;;;18.83;69.43
17383;BME280;8809;51.892;8.384;2023-10-31T12:38:27;99210.69;;;18.97;68.85
17383;BME280;8809;51.892;8.384;2023-10-31T12:40:55;99214.00;;;19.12;68.79
17383;BME280;8809;51.892;8.384;2023-10-31T12:43:24;99217.50;;;19.13;68.07
17383;BME280;8809;51.892;8.384;2023-10-31T12:45:52;99219.44;;;19.02;68.62
17383;BME280;8809;51.892;8.384;2023-10-31T12:48:24;99231.44;;;19.24;68.04
17383;BME280;8809;51.892;8.384;2023-10-31T12:51:06;99227.09;;;19.20;67.71
17383;BME280;8809;51.892;8.384;2023-10-31T12:53:35;99222.75;;;19.16;67.78
17383;BME280;8809;51.892;8.384;2023-10-31T12:56:03;99228.16;;;19.07;68.40
17383;BME280;8809;51.892;8.384;2023-10-31T12:58:30;99227.25;;;19.09;68.10
17383;BME280;8809;51.892;8.384;2023-10-31T13:00:57;99228.06;;;19.13;67.82
17383;BME280;8809;51.892;8.384;2023-10-31T13:03:25;99232.44;;;19.17;67.86
17383;BME280;8809;51.892;8.384;2023-10-31T13:05:52;99241.97;;;19.27;68.06
17383;BME280;8809;51.892;8.384;2023-10-31T13:08:19;99241.06;;;19.30;67.87
17383;BME280;8809;51.892;8.384;2023-10-31T13:10:51;99239.31;;;19.27;67.88
17383;BME280;8809;51.892;8.384;2023-10-31T13:13:19;99235.06;;;19.18;69.03
17383;BME280;8809;51.892;8.384;2023-10-31T13:15:46;99238.69;;;19.11;69.36